^^
Station Historical Data
 
Daily Summary for December 11, 2018 Units:  Both    English   Metric
« Previous Day
Next Day »
Daily Weekly Monthly Yearly Custom
  Current: High: Low: Average:
Temperature: 65.8 °F /  18.8 °C TemperatureF °F /  -17.8 °C 65.8 °F /  18.8 °C 67 °F /  19.4 °C
Dew Point: 35.2 °F /  1.8 °C DewpointF °F /  -17.8 °C 30.2 °F /  -1 °C 33.2 °F /  0.7 °C
Humidity: 32% Humidity% 24% 28%
Wind Speed: 0mph /  0km/h WindSpeedMPHmph /  0km/h - 1.4mph /  2.3km/h
Wind Gust: 3mph /  4.8km/h WindSpeedGustMPHmph /  0km/h - -
WindCalm - - South
Pressure: 29.76 in /  1007.7 hPa PressureIn in /  0 hPa 29.75 in /  1007.3 hPa -
Precipitation: 0 in /  0 mm      
Historical Graphs
 
 
Tabular Data for December 11, 2018
Time Temperature Dew Point Pressure Wind Wind Speed Wind Gust Humidity Rainfall Rate (Hourly) solar Conditions
TemperatureF °F /  -17.8 °C DewpointF °F /  -17.8 °C PressureInin /  0hPa Calm     Humidity% HourlyPrecipInin /  0mm SolarRadiationWatts/m^2 W/m2 Conditions
00:04 69.4 °F /  20.8 °C 31.1 °F /  -0.5 °C 29.79in /  1008.7hPa SW 0.9mph /  1.4km/h 1mph /  1.6km/h 24% 0in /  0mm 0.00 W/m2
00:09 69.3 °F /  20.7 °C 30.9 °F /  -0.6 °C 29.79in /  1008.7hPa Calm   2mph /  3.2km/h 24% 0in /  0mm 0.00 W/m2
00:14 69.3 °F /  20.7 °C 30.9 °F /  -0.6 °C 29.79in /  1008.7hPa Calm     24% 0in /  0mm 0.00 W/m2
00:19 69.1 °F /  20.6 °C 30.7 °F /  -0.7 °C 29.79in /  1008.7hPa Calm   2mph /  3.2km/h 24% 0in /  0mm 0.00 W/m2
00:24 68.7 °F /  20.4 °C 31.5 °F /  -0.3 °C 29.78in /  1008.4hPa Calm   1mph /  1.6km/h 25% 0in /  0mm 0.00 W/m2
00:29 68.5 °F /  20.3 °C 31.3 °F /  -0.4 °C 29.78in /  1008.4hPa Calm   1mph /  1.6km/h 25% 0in /  0mm 0.00 W/m2
00:34 68.4 °F /  20.2 °C 30.2 °F /  -1 °C 29.78in /  1008.4hPa SSE 4mph /  6.4km/h 4mph /  6.4km/h 24% 0in /  0mm 0.00 W/m2
00:39 68.7 °F /  20.4 °C 30.4 °F /  -0.9 °C 29.78in /  1008.4hPa SSW 2.9mph /  4.7km/h 8mph /  12.9km/h 24% 0in /  0mm 0.00 W/m2
00:44 69.1 °F /  20.6 °C 31.8 °F /  -0.1 °C 29.78in /  1008.4hPa SE 2mph /  3.2km/h 8mph /  12.9km/h 25% 0in /  0mm 0.00 W/m2
00:49 69.4 °F /  20.8 °C 32 °F /  0 °C 29.77in /  1008hPa South 2mph /  3.2km/h 6mph /  9.7km/h 25% 0in /  0mm 0.00 W/m2
00:54 69.6 °F /  20.9 °C 32.2 °F /  0.1 °C 29.77in /  1008hPa Calm   7mph /  11.3km/h 25% 0in /  0mm 0.00 W/m2
00:59 69.8 °F /  21 °C 32.4 °F /  0.2 °C 29.77in /  1008hPa SSE 4.9mph /  7.9km/h 10mph /  16.1km/h 25% 0in /  0mm 0.00 W/m2
01:04 70 °F /  21.1 °C 32.5 °F /  0.3 °C 29.77in /  1008hPa SSW 2.9mph /  4.7km/h 5mph /  8km/h 25% 0in /  0mm 0.00 W/m2
01:09 70 °F /  21.1 °C 32.5 °F /  0.3 °C 29.77in /  1008hPa South 2mph /  3.2km/h 7mph /  11.3km/h 25% 0in /  0mm 0.00 W/m2
01:14 70 °F /  21.1 °C 32.5 °F /  0.3 °C 29.77in /  1008hPa Calm   1mph /  1.6km/h 25% 0in /  0mm 0.00 W/m2
01:19 69.8 °F /  21 °C 31.5 °F /  -0.3 °C 29.77in /  1008hPa SW 2.9mph /  4.7km/h 6mph /  9.7km/h 24% 0in /  0mm 0.00 W/m2
01:24 69.6 °F /  20.9 °C 31.3 °F /  -0.4 °C 29.77in /  1008hPa Calm   2mph /  3.2km/h 24% 0in /  0mm 0.00 W/m2
01:29 69.6 °F /  20.9 °C 31.3 °F /  -0.4 °C 29.77in /  1008hPa South 2mph /  3.2km/h 6mph /  9.7km/h 24% 0in /  0mm 0.00 W/m2
01:34 69.6 °F /  20.9 °C 32.2 °F /  0.1 °C 29.76in /  1007.7hPa WSW 2mph /  3.2km/h 3mph /  4.8km/h 25% 0in /  0mm 0.00 W/m2
01:39 69.4 °F /  20.8 °C 33.1 °F /  0.6 °C 29.76in /  1007.7hPa SSW 2.9mph /  4.7km/h 5mph /  8km/h 26% 0in /  0mm 0.00 W/m2
01:44 69.4 °F /  20.8 °C 33.1 °F /  0.6 °C 29.76in /  1007.7hPa Calm   4mph /  6.4km/h 26% 0in /  0mm 0.00 W/m2
01:49 69.3 °F /  20.7 °C 32 °F /  0 °C 29.76in /  1007.7hPa SW 0.9mph /  1.4km/h 1mph /  1.6km/h 25% 0in /  0mm 0.00 W/m2
01:54 69.1 °F /  20.6 °C 31.8 °F /  -0.1 °C 29.76in /  1007.7hPa Calm   2mph /  3.2km/h 25% 0in /  0mm 0.00 W/m2
01:59 69.1 °F /  20.6 °C 32.7 °F /  0.4 °C 29.76in /  1007.7hPa Calm   2mph /  3.2km/h 26% 0in /  0mm 0.00 W/m2
02:04 68.7 °F /  20.4 °C 32.4 °F /  0.2 °C 29.76in /  1007.7hPa West 0.9mph /  1.4km/h 1mph /  1.6km/h 26% 0in /  0mm 0.00 W/m2
02:09 68.5 °F /  20.3 °C 32.4 °F /  0.2 °C 29.76in /  1007.7hPa Calm   1mph /  1.6km/h 26% 0in /  0mm 0.00 W/m2
02:14 68.2 °F /  20.1 °C 31.1 °F /  -0.5 °C 29.76in /  1007.7hPa NNE 2mph /  3.2km/h 7mph /  11.3km/h 25% 0in /  0mm 0.00 W/m2
02:19 68 °F /  20 °C 31.8 °F /  -0.1 °C 29.76in /  1007.7hPa Calm   1mph /  1.6km/h 26% 0in /  0mm 0.00 W/m2
02:24 67.8 °F /  19.9 °C 32.5 °F /  0.3 °C 29.76in /  1007.7hPa NNW 2mph /  3.2km/h 3mph /  4.8km/h 27% 0in /  0mm 0.00 W/m2
02:29 67.8 °F /  19.9 °C 32.5 °F /  0.3 °C 29.76in /  1007.7hPa West 2mph /  3.2km/h 3mph /  4.8km/h 27% 0in /  0mm 0.00 W/m2
02:34 67.8 °F /  19.9 °C 34.3 °F /  1.3 °C 29.77in /  1008hPa SSE 6mph /  9.7km/h 8mph /  12.9km/h 29% 0in /  0mm 0.00 W/m2
02:39 68 °F /  20 °C 34.5 °F /  1.4 °C 29.76in /  1007.7hPa Calm   2mph /  3.2km/h 29% 0in /  0mm 0.00 W/m2
02:44 68 °F /  20 °C 35.4 °F /  1.9 °C 29.76in /  1007.7hPa SE 2mph /  3.2km/h 4mph /  6.4km/h 30% 0in /  0mm 0.00 W/m2
02:49 68 °F /  20 °C 35.4 °F /  1.9 °C 29.76in /  1007.7hPa SSE 2mph /  3.2km/h 4mph /  6.4km/h 30% 0in /  0mm 0.00 W/m2
02:54 67.8 °F /  19.9 °C 35.2 °F /  1.8 °C 29.76in /  1007.7hPa Calm   3mph /  4.8km/h 30% 0in /  0mm 0.00 W/m2
02:59 67.8 °F /  19.9 °C 35.2 °F /  1.8 °C 29.76in /  1007.7hPa Calm   1mph /  1.6km/h 30% 0in /  0mm 0.00 W/m2
03:04 67.8 °F /  19.9 °C 36.1 °F /  2.3 °C 29.76in /  1007.7hPa South 4mph /  6.4km/h 5mph /  8km/h 31% 0in /  0mm 0.00 W/m2
03:09 67.6 °F /  19.8 °C 36.7 °F /  2.6 °C 29.76in /  1007.7hPa South 0.9mph /  1.4km/h 7mph /  11.3km/h 32% 0in /  0mm 0.00 W/m2
03:14 67.6 °F /  19.8 °C 36.7 °F /  2.6 °C 29.76in /  1007.7hPa SE 4.9mph /  7.9km/h 8mph /  12.9km/h 32% 0in /  0mm 0.00 W/m2
03:18 67.6 °F /  19.8 °C 37.6 °F /  3.1 °C 29.76in /  1007.7hPa SSE 2mph /  3.2km/h 11mph /  17.7km/h 33% 0in /  0mm 0.00 W/m2
03:24 67.6 °F /  19.8 °C 37.6 °F /  3.1 °C 29.76in /  1007.7hPa Calm   6mph /  9.7km/h 33% 0in /  0mm 0.00 W/m2
03:29 67.5 °F /  19.7 °C 37.4 °F /  3 °C 29.76in /  1007.7hPa SE 4mph /  6.4km/h 8mph /  12.9km/h 33% 0in /  0mm 0.00 W/m2
03:34 67.5 °F /  19.7 °C 37.4 °F /  3 °C 29.76in /  1007.7hPa SW 2.9mph /  4.7km/h 9mph /  14.5km/h 33% 0in /  0mm 0.00 W/m2
03:39 67.3 °F /  19.6 °C 37.2 °F /  2.9 °C 29.76in /  1007.7hPa SE 2mph /  3.2km/h 5mph /  8km/h 33% 0in /  0mm 0.00 W/m2
03:44 67.3 °F /  19.6 °C 37.2 °F /  2.9 °C 29.76in /  1007.7hPa SE 2.9mph /  4.7km/h 7mph /  11.3km/h 33% 0in /  0mm 0.00 W/m2
03:49 67.3 °F /  19.6 °C 37.2 °F /  2.9 °C 29.75in /  1007.3hPa ESE 2mph /  3.2km/h 3mph /  4.8km/h 33% 0in /  0mm 0.00 W/m2
03:54 66.9 °F /  19.4 °C 36.9 °F /  2.7 °C 29.75in /  1007.3hPa Calm   4mph /  6.4km/h 33% 0in /  0mm 0.00 W/m2
03:59 66.9 °F /  19.4 °C 36.9 °F /  2.7 °C 29.75in /  1007.3hPa Calm   2mph /  3.2km/h 33% 0in /  0mm 0.00 W/m2
04:04 66.9 °F /  19.4 °C 35.2 °F /  1.8 °C 29.75in /  1007.3hPa SSW 2mph /  3.2km/h 4mph /  6.4km/h 31% 0in /  0mm 0.00 W/m2
04:09 66.7 °F /  19.3 °C 35.1 °F /  1.7 °C 29.75in /  1007.3hPa ESE 0.9mph /  1.4km/h 1mph /  1.6km/h 31% 0in /  0mm 0.00 W/m2
04:14 66.7 °F /  19.3 °C 35.1 °F /  1.7 °C 29.75in /  1007.3hPa Calm   1mph /  1.6km/h 31% 0in /  0mm 0.00 W/m2
04:19 66.6 °F /  19.2 °C 35.1 °F /  1.7 °C 29.76in /  1007.7hPa Calm   3mph /  4.8km/h 31% 0in /  0mm 0.00 W/m2
04:24 66.4 °F /  19.1 °C 34.9 °F /  1.6 °C 29.76in /  1007.7hPa SSW 0.9mph /  1.4km/h 3mph /  4.8km/h 31% 0in /  0mm 0.00 W/m2
04:29 66.4 °F /  19.1 °C 34.9 °F /  1.6 °C 29.76in /  1007.7hPa Calm   1mph /  1.6km/h 31% 0in /  0mm 0.00 W/m2
04:34 66 °F /  18.9 °C 35.2 °F /  1.8 °C 29.76in /  1007.7hPa Calm   2mph /  3.2km/h 32% 0in /  0mm 0.00 W/m2
04:39 65.8 °F /  18.8 °C 35.2 °F /  1.8 °C 29.76in /  1007.7hPa Calm   3mph /  4.8km/h 32% 0in /  0mm 0.00 W/m2
Olympia, Windhoek, Namibia
Compliments of Weather Underground - 2 mb